createdAt,value
2019-03-08T00:00:05.114Z,965.45
2019-03-08T00:01:05.411Z,965.37
2019-03-08T00:02:04.944Z,965.37
2019-03-08T00:03:05.256Z,965.43
2019-03-08T00:04:04.880Z,965.34
2019-03-08T00:05:05.884Z,965.37
2019-03-08T00:06:05.311Z,965.26
2019-03-08T00:07:04.721Z,965.37
2019-03-08T00:08:05.536Z,965.26
2019-03-08T00:09:05.182Z,965.37
2019-03-08T00:10:05.654Z,965.34
2019-03-08T00:11:05.120Z,965.23
2019-03-08T00:12:05.325Z,965.29
2019-03-08T00:13:06.034Z,965.26
2019-03-08T00:14:05.091Z,965.32
2019-03-08T00:15:05.402Z,965.32
2019-03-08T00:16:05.190Z,965.49
2019-03-08T00:17:05.221Z,965.23
2019-03-08T00:18:04.905Z,965.35
2019-03-08T00:19:05.382Z,965.29
2019-03-08T00:20:05.556Z,965.40
2019-03-08T00:21:05.831Z,965.52
2019-03-08T00:22:05.357Z,965.40
2019-03-08T00:23:05.097Z,965.46
2019-03-08T00:24:05.595Z,965.52
2019-03-08T00:25:05.110Z,965.43
2019-03-08T00:26:05.790Z,965.62
2019-03-08T00:27:05.089Z,965.62
2019-03-08T00:28:05.157Z,965.51
2019-03-08T00:29:10.153Z,965.52
2019-03-08T00:30:05.007Z,965.65
2019-03-08T00:31:05.464Z,965.49
2019-03-08T00:32:04.899Z,965.54
2019-03-08T00:33:05.501Z,965.64
2019-03-08T00:34:04.958Z,965.61
2019-03-08T00:35:05.715Z,965.70
2019-03-08T00:36:05.058Z,965.81
2019-03-08T00:37:05.603Z,965.64
2019-03-08T00:38:04.789Z,965.75
2019-03-08T00:39:05.103Z,965.54
2019-03-08T00:40:05.608Z,965.54
2019-03-08T00:41:04.921Z,965.81
2019-03-08T00:42:04.913Z,965.78
2019-03-08T00:43:05.095Z,965.75
2019-03-08T00:44:05.550Z,965.95
2019-03-08T00:45:04.798Z,965.92
2019-03-08T00:46:05.445Z,965.86
2019-03-08T00:47:04.972Z,966.09
2019-03-08T00:48:05.553Z,965.83
2019-03-08T00:49:10.121Z,965.78
2019-03-08T00:50:04.934Z,965.89
2019-03-08T00:51:05.659Z,965.89
2019-03-08T00:52:04.908Z,965.87
2019-03-08T00:53:05.276Z,965.98
2019-03-08T00:54:05.034Z,965.87
2019-03-08T00:55:05.035Z,965.82
2019-03-08T00:56:05.416Z,965.88
2019-03-08T00:57:05.653Z,965.96
2019-03-08T00:58:05.015Z,965.88
2019-03-08T00:59:05.748Z,965.74
2019-03-08T01:00:04.954Z,965.77
2019-03-08T01:01:04.867Z,965.72
2019-03-08T01:02:05.625Z,965.86
2019-03-08T01:03:04.831Z,965.89
2019-03-08T01:04:04.863Z,965.75
2019-03-08T01:05:05.795Z,965.92
2019-03-08T01:06:04.935Z,965.73
2019-03-08T01:07:04.852Z,965.65
2019-03-08T01:08:05.531Z,965.73
2019-03-08T01:09:05.525Z,965.82
2019-03-08T01:10:05.010Z,965.62
2019-03-08T01:11:05.718Z,965.77
2019-03-08T01:12:05.479Z,965.85
2019-03-08T01:13:05.636Z,965.68
2019-03-08T01:14:05.465Z,965.58
2019-03-08T01:15:05.168Z,965.55
2019-03-08T01:16:05.271Z,965.53
2019-03-08T01:17:04.845Z,965.59
2019-03-08T01:18:05.248Z,965.56
2019-03-08T01:19:05.849Z,965.50
2019-03-08T01:20:05.303Z,965.50
2019-03-08T01:21:05.139Z,965.56
2019-03-08T01:22:05.608Z,965.60
2019-03-08T01:23:05.085Z,965.59
2019-03-08T01:24:05.467Z,965.50
2019-03-08T01:25:04.937Z,965.50
2019-03-08T01:26:04.815Z,965.39
2019-03-08T01:27:05.209Z,965.44
2019-03-08T01:28:05.682Z,965.47
2019-03-08T01:29:05.162Z,965.44
2019-03-08T01:30:05.483Z,965.42
2019-03-08T01:31:05.500Z,965.47
2019-03-08T01:32:05.928Z,965.33
2019-03-08T01:33:05.223Z,965.50
2019-03-08T01:34:04.887Z,965.50
2019-03-08T01:35:05.341Z,965.33
2019-03-08T01:36:05.004Z,965.53
2019-03-08T01:37:05.120Z,965.59
2019-03-08T01:38:05.671Z,965.42
2019-03-08T01:39:04.915Z,965.33
2019-03-08T01:40:05.719Z,965.50
2019-03-08T01:41:05.306Z,965.36
2019-03-08T01:42:05.222Z,965.30
2019-03-08T01:43:05.335Z,965.36
2019-03-08T01:44:05.768Z,965.30
2019-03-08T01:45:05.419Z,965.33
2019-03-08T01:46:05.110Z,965.33
2019-03-08T01:47:05.826Z,965.27
2019-03-08T01:48:05.249Z,965.27
2019-03-08T01:49:05.341Z,965.27
2019-03-08T01:50:10.387Z,965.30
2019-03-08T01:51:05.150Z,965.30
2019-03-08T01:52:05.427Z,965.21
2019-03-08T01:53:05.510Z,965.13
2019-03-08T01:54:05.089Z,965.24
2019-03-08T01:55:05.663Z,965.13
2019-03-08T01:56:05.737Z,965.21
2019-03-08T01:57:05.953Z,965.30
2019-03-08T01:58:05.620Z,965.13
2019-03-08T01:59:04.977Z,965.36
2019-03-08T02:00:05.668Z,965.07
2019-03-08T02:01:04.948Z,965.19
2019-03-08T02:02:05.538Z,965.19
2019-03-08T02:03:05.118Z,965.19
2019-03-08T02:04:04.965Z,965.16
2019-03-08T02:05:05.651Z,965.08
2019-03-08T02:06:05.197Z,965.22
2019-03-08T02:07:04.981Z,965.10
2019-03-08T02:08:05.545Z,965.39
2019-03-08T02:09:05.142Z,965.24
2019-03-08T02:10:05.816Z,965.21
2019-03-08T02:11:05.325Z,965.33
2019-03-08T02:12:04.785Z,965.07
2019-03-08T02:13:05.314Z,965.21
2019-03-08T02:14:05.104Z,965.21
2019-03-08T02:15:04.996Z,965.32
2019-03-08T02:16:05.715Z,965.21
2019-03-08T02:17:05.075Z,965.10
2019-03-08T02:18:05.695Z,965.26
2019-03-08T02:19:05.392Z,965.07
2019-03-08T02:20:05.691Z,965.18
2019-03-08T02:21:08.455Z,965.15
2019-03-08T02:22:05.422Z,964.98
2019-03-08T02:23:05.791Z,965.18
2019-03-08T02:24:05.655Z,964.95
2019-03-08T02:25:05.355Z,965.00
2019-03-08T02:26:04.822Z,965.20
2019-03-08T02:27:05.606Z,965.14
2019-03-08T02:28:05.253Z,965.14
2019-03-08T02:29:10.784Z,965.25
2019-03-08T02:30:05.617Z,965.31
2019-03-08T02:31:05.019Z,965.08
2019-03-08T02:32:05.704Z,965.22
2019-03-08T02:33:05.236Z,965.16
2019-03-08T02:34:05.554Z,965.25
2019-03-08T02:35:05.630Z,964.91
2019-03-08T02:36:04.951Z,965.07
2019-03-08T02:37:05.919Z,965.10
2019-03-08T02:38:05.729Z,965.07
2019-03-08T02:39:05.091Z,965.01
2019-03-08T02:40:05.498Z,964.84
2019-03-08T02:41:04.889Z,964.96
2019-03-08T02:42:05.228Z,964.95
2019-03-08T02:43:05.028Z,965.12
2019-03-08T02:44:05.143Z,964.95
2019-03-08T02:45:05.664Z,964.95
2019-03-08T02:46:05.239Z,965.04
2019-03-08T02:47:05.608Z,965.09
2019-03-08T02:48:05.296Z,965.06
2019-03-08T02:49:06.828Z,964.95
2019-03-08T02:50:05.691Z,965.06
2019-03-08T02:51:05.154Z,965.12
2019-03-08T02:52:05.465Z,965.06
2019-03-08T02:53:05.391Z,964.83
2019-03-08T02:54:05.091Z,965.03
2019-03-08T02:55:05.383Z,965.11
2019-03-08T02:56:05.237Z,964.94
2019-03-08T02:57:05.525Z,964.97
2019-03-08T02:58:10.613Z,964.89
2019-03-08T02:59:04.763Z,964.86
2019-03-08T03:00:05.188Z,964.83
2019-03-08T03:01:05.161Z,964.97
2019-03-08T03:02:05.591Z,964.78
2019-03-08T03:03:05.248Z,964.72
2019-03-08T03:04:04.849Z,964.70
2019-03-08T03:05:05.302Z,964.78
2019-03-08T03:06:04.951Z,964.86
2019-03-08T03:07:04.742Z,964.78
2019-03-08T03:08:05.496Z,964.86
2019-03-08T03:09:04.865Z,964.64
2019-03-08T03:10:05.853Z,964.75
2019-03-08T03:11:05.038Z,964.72
2019-03-08T03:12:05.462Z,964.75
2019-03-08T03:13:04.731Z,964.67
2019-03-08T03:14:05.666Z,964.73
2019-03-08T03:15:05.721Z,964.83
2019-03-08T03:16:05.438Z,964.70
2019-03-08T03:17:05.122Z,964.64
2019-03-08T03:18:05.427Z,964.79
2019-03-08T03:19:05.698Z,964.76
2019-03-08T03:20:05.045Z,964.73
2019-03-08T03:21:05.284Z,964.73
2019-03-08T03:22:05.480Z,964.71
2019-03-08T03:23:05.461Z,964.98
2019-03-08T03:24:05.843Z,964.87
2019-03-08T03:25:05.500Z,964.90
2019-03-08T03:26:05.575Z,964.90
2019-03-08T03:27:05.014Z,964.90
2019-03-08T03:28:05.630Z,964.95
2019-03-08T03:29:10.504Z,964.95
2019-03-08T03:30:05.207Z,964.84
2019-03-08T03:31:05.699Z,964.87
2019-03-08T03:32:05.465Z,965.01
2019-03-08T03:33:04.985Z,965.01
2019-03-08T03:34:05.480Z,964.93
2019-03-08T03:35:05.009Z,965.24
2019-03-08T03:36:05.319Z,965.10
2019-03-08T03:37:05.687Z,965.12
2019-03-08T03:38:05.092Z,965.29
2019-03-08T03:39:05.612Z,965.41
2019-03-08T03:40:05.606Z,965.29
2019-03-08T03:41:04.878Z,965.24
2019-03-08T03:42:05.166Z,965.29
2019-03-08T03:43:05.790Z,965.29
2019-03-08T03:44:05.506Z,965.35
2019-03-08T03:45:05.196Z,965.29
2019-03-08T03:46:04.979Z,965.46
2019-03-08T03:47:05.344Z,965.41
2019-03-08T03:48:04.880Z,965.35
2019-03-08T03:49:10.772Z,965.35
2019-03-08T03:50:05.445Z,965.57
2019-03-08T03:51:04.727Z,965.57
2019-03-08T03:52:05.109Z,965.52
2019-03-08T03:53:05.748Z,965.57
2019-03-08T03:54:05.048Z,965.46
2019-03-08T03:55:04.846Z,965.52
2019-03-08T03:56:05.075Z,965.54
2019-03-08T03:57:05.422Z,965.60
2019-03-08T03:58:04.897Z,965.60
2019-03-08T03:59:05.308Z,965.62
2019-03-08T04:00:04.993Z,965.57
2019-03-08T04:01:05.334Z,965.46
2019-03-08T04:02:04.898Z,965.67
2019-03-08T04:03:05.444Z,965.67
2019-03-08T04:04:05.527Z,965.76
2019-03-08T04:05:04.888Z,965.87
2019-03-08T04:06:05.475Z,965.76
2019-03-08T04:07:05.330Z,965.70
2019-03-08T04:08:04.736Z,965.76
2019-03-08T04:09:05.404Z,965.90
2019-03-08T04:10:04.996Z,965.84
2019-03-08T04:11:05.167Z,965.87
2019-03-08T04:12:04.985Z,965.79
2019-03-08T04:13:04.901Z,965.79
2019-03-08T04:14:05.504Z,965.79
2019-03-08T04:15:04.824Z,965.70
2019-03-08T04:16:05.607Z,965.79
2019-03-08T04:17:04.976Z,965.60
2019-03-08T04:18:05.532Z,965.60
2019-03-08T04:19:04.903Z,965.60
2019-03-08T04:20:04.897Z,965.65
2019-03-08T04:21:05.556Z,965.60
2019-03-08T04:22:05.088Z,965.68
2019-03-08T04:23:05.487Z,965.68
2019-03-08T04:24:04.884Z,965.60
2019-03-08T04:25:05.694Z,965.52
2019-03-08T04:26:04.806Z,965.60
2019-03-08T04:27:05.447Z,965.47
2019-03-08T04:28:04.675Z,965.58
2019-03-08T04:29:10.609Z,965.68
2019-03-08T04:30:05.411Z,965.60
2019-03-08T04:31:05.655Z,965.74
2019-03-08T04:32:04.920Z,965.63
2019-03-08T04:33:05.404Z,965.74
2019-03-08T04:34:05.471Z,965.60
2019-03-08T04:35:05.241Z,965.63
2019-03-08T04:36:05.667Z,965.66
2019-03-08T04:37:05.455Z,965.61
2019-03-08T04:38:05.083Z,965.45
2019-03-08T04:39:04.850Z,965.63
2019-03-08T04:40:05.399Z,965.42
2019-03-08T04:41:04.849Z,965.59
2019-03-08T04:42:05.143Z,965.48
2019-03-08T04:43:04.804Z,965.40
2019-03-08T04:44:05.557Z,965.51
2019-03-08T04:45:05.069Z,965.51
2019-03-08T04:46:05.680Z,965.54
2019-03-08T04:47:05.173Z,965.48
2019-03-08T04:48:05.026Z,965.46
2019-03-08T04:49:05.697Z,965.70
2019-03-08T04:50:05.166Z,965.73
2019-03-08T04:51:05.363Z,965.57
2019-03-08T04:52:04.819Z,965.57
2019-03-08T04:53:05.305Z,965.62
2019-03-08T04:54:04.946Z,965.55
2019-03-08T04:55:05.213Z,965.57
2019-03-08T04:56:05.741Z,965.57
2019-03-08T04:57:05.508Z,965.55
2019-03-08T04:58:05.347Z,965.65
2019-03-08T04:59:04.707Z,965.60
2019-03-08T05:00:05.294Z,965.60
2019-03-08T05:01:05.116Z,965.58
2019-03-08T05:02:05.104Z,965.60
2019-03-08T05:03:05.192Z,965.65
2019-03-08T05:04:05.696Z,965.60
2019-03-08T05:05:05.271Z,965.68
2019-03-08T05:06:05.846Z,965.63
2019-03-08T05:07:05.593Z,965.65
2019-03-08T05:08:05.370Z,965.74
2019-03-08T05:09:05.725Z,965.66
2019-03-08T05:10:05.213Z,965.71
2019-03-08T05:11:05.719Z,965.77
2019-03-08T05:12:04.736Z,965.74
2019-03-08T05:13:05.174Z,965.68
2019-03-08T05:14:05.486Z,965.68
2019-03-08T05:15:05.328Z,965.74
2019-03-08T05:16:05.594Z,965.77
2019-03-08T05:17:05.414Z,965.71
2019-03-08T05:18:05.285Z,965.83
2019-03-08T05:19:05.418Z,965.77
2019-03-08T05:20:05.015Z,965.91
2019-03-08T05:21:04.843Z,965.72
2019-03-08T05:22:05.525Z,965.91
2019-03-08T05:23:04.989Z,965.72
2019-03-08T05:24:05.264Z,965.83
2019-03-08T05:25:05.581Z,965.94
2019-03-08T05:26:05.504Z,965.89
2019-03-08T05:27:05.924Z,965.94
2019-03-08T05:28:05.482Z,965.94
2019-03-08T05:29:05.700Z,966.00
2019-03-08T05:30:05.056Z,965.92
2019-03-08T05:31:04.863Z,965.92
2019-03-08T05:32:04.815Z,966.12
2019-03-08T05:33:05.607Z,966.00
2019-03-08T05:34:05.216Z,966.09
2019-03-08T05:35:05.646Z,965.97
2019-03-08T05:36:05.138Z,966.09
2019-03-08T05:37:05.584Z,966.20
2019-03-08T05:38:05.745Z,966.06
2019-03-08T05:39:05.196Z,966.12
2019-03-08T05:40:05.406Z,966.14
2019-03-08T05:41:05.596Z,966.09
2019-03-08T05:42:05.006Z,966.26
2019-03-08T05:43:05.227Z,966.20
2019-03-08T05:44:04.925Z,966.12
2019-03-08T05:45:05.552Z,966.34
2019-03-08T05:46:05.572Z,966.29
2019-03-08T05:47:05.292Z,966.20
2019-03-08T05:48:05.357Z,966.26
2019-03-08T05:49:09.893Z,966.29
2019-03-08T05:50:05.636Z,966.23
2019-03-08T05:51:05.200Z,966.37
2019-03-08T05:52:05.313Z,966.34
2019-03-08T05:53:05.600Z,966.43
2019-03-08T05:54:07.668Z,966.43
2019-03-08T05:55:05.713Z,966.45
2019-03-08T05:56:05.478Z,966.45
2019-03-08T05:57:05.655Z,966.48
2019-03-08T05:58:05.214Z,966.40
2019-03-08T05:59:05.676Z,966.42
2019-03-08T06:00:05.212Z,966.34
2019-03-08T06:01:05.741Z,966.45
2019-03-08T06:02:05.839Z,966.37
2019-03-08T06:03:05.353Z,966.56
2019-03-08T06:04:05.675Z,966.37
2019-03-08T06:05:05.405Z,966.34
2019-03-08T06:06:04.802Z,966.28
2019-03-08T06:07:05.411Z,966.20
2019-03-08T06:08:04.810Z,966.39
2019-03-08T06:09:05.761Z,966.28
2019-03-08T06:10:05.173Z,966.31
2019-03-08T06:11:05.338Z,966.48
2019-03-08T06:12:05.039Z,966.34
2019-03-08T06:13:05.591Z,966.20
2019-03-08T06:14:05.721Z,966.28
2019-03-08T06:15:05.219Z,966.34
2019-03-08T06:16:05.762Z,966.34
2019-03-08T06:17:05.234Z,966.37
2019-03-08T06:18:05.787Z,966.28
2019-03-08T06:19:05.886Z,966.34
2019-03-08T06:20:05.296Z,966.42
2019-03-08T06:21:05.070Z,966.39
2019-03-08T06:22:05.150Z,966.34
2019-03-08T06:23:05.193Z,966.37
2019-03-08T06:24:05.978Z,966.28
2019-03-08T06:25:04.954Z,966.39
2019-03-08T06:26:05.530Z,966.39
2019-03-08T06:27:04.845Z,966.33
2019-03-08T06:28:05.012Z,966.30
2019-03-08T06:29:05.292Z,966.47
2019-03-08T06:30:05.063Z,966.55
2019-03-08T06:31:05.188Z,966.35
2019-03-08T06:32:05.822Z,966.33
2019-03-08T06:33:05.630Z,966.41
2019-03-08T06:34:04.969Z,966.44
2019-03-08T06:35:05.699Z,966.43
2019-03-08T06:36:04.795Z,966.43
2019-03-08T06:37:05.040Z,966.42
2019-03-08T06:38:05.024Z,966.41
2019-03-08T06:39:05.348Z,966.58
2019-03-08T06:40:04.739Z,966.57
2019-03-08T06:41:04.823Z,966.65
2019-03-08T06:42:05.312Z,966.58
2019-03-08T06:43:05.499Z,966.55
2019-03-08T06:44:05.135Z,966.60
2019-03-08T06:45:04.908Z,966.65
2019-03-08T06:46:05.507Z,966.73
2019-03-08T06:47:06.056Z,966.67
2019-03-08T06:48:05.788Z,966.69
2019-03-08T06:49:05.533Z,966.77
2019-03-08T06:50:05.066Z,966.82
2019-03-08T06:51:06.045Z,966.64
2019-03-08T06:52:05.693Z,966.84
2019-03-08T06:53:05.636Z,966.77
2019-03-08T06:54:05.868Z,966.80
2019-03-08T06:55:05.435Z,966.99
2019-03-08T06:56:05.143Z,966.82
2019-03-08T06:57:10.814Z,966.96
2019-03-08T06:58:05.468Z,966.92
2019-03-08T06:59:05.604Z,966.95
2019-03-08T07:00:04.997Z,967.08
2019-03-08T07:01:05.608Z,966.97
2019-03-08T07:02:05.123Z,967.05
2019-03-08T07:03:05.539Z,967.01
2019-03-08T07:04:05.149Z,967.07
2019-03-08T07:05:05.423Z,967.09
2019-03-08T07:06:05.194Z,967.09
2019-03-08T07:07:05.881Z,967.01
2019-03-08T07:08:05.393Z,967.09
2019-03-08T07:09:05.236Z,967.06
2019-03-08T07:10:05.639Z,967.17
2019-03-08T07:11:05.472Z,967.31
2019-03-08T07:12:05.183Z,967.22
2019-03-08T07:13:05.412Z,967.13
2019-03-08T07:14:05.090Z,967.16
2019-03-08T07:15:06.067Z,967.30
2019-03-08T07:16:13.882Z,967.19
2019-03-08T07:17:04.862Z,967.30
2019-03-08T07:18:13.218Z,967.24
2019-03-08T07:19:05.180Z,967.30
2019-03-08T07:20:05.500Z,967.19
2019-03-08T07:21:05.835Z,967.33
2019-03-08T07:22:04.872Z,967.50
2019-03-08T07:23:05.111Z,967.47
2019-03-08T07:24:05.420Z,967.25
2019-03-08T07:25:04.989Z,967.42
2019-03-08T07:26:05.748Z,967.51
2019-03-08T07:27:05.185Z,967.45
2019-03-08T07:28:05.515Z,967.39
2019-03-08T07:29:05.325Z,967.35
2019-03-08T07:30:05.010Z,967.54
2019-03-08T07:31:05.576Z,967.60
2019-03-08T07:32:05.833Z,967.54
2019-03-08T07:33:05.287Z,967.60
2019-03-08T07:34:05.023Z,967.60
2019-03-08T07:35:05.612Z,967.60
2019-03-08T07:36:05.825Z,967.63
2019-03-08T07:37:05.285Z,967.72
2019-03-08T07:38:05.566Z,967.66
2019-03-08T07:39:05.642Z,967.69
2019-03-08T07:40:05.519Z,967.57
2019-03-08T07:41:05.596Z,967.74
2019-03-08T07:42:05.339Z,967.69
2019-03-08T07:43:05.671Z,967.83
2019-03-08T07:44:04.732Z,967.75
2019-03-08T07:45:05.497Z,967.80
2019-03-08T07:46:04.940Z,967.94
2019-03-08T07:47:04.949Z,967.92
2019-03-08T07:48:05.074Z,967.91
2019-03-08T07:49:05.467Z,968.16
2019-03-08T07:50:06.118Z,968.11
2019-03-08T07:51:05.689Z,968.08
2019-03-08T07:52:05.260Z,968.11
2019-03-08T07:53:04.746Z,968.19
2019-03-08T07:54:05.224Z,968.17
2019-03-08T07:55:04.933Z,968.20
2019-03-08T07:56:06.725Z,968.26
2019-03-08T07:57:05.751Z,968.41
2019-03-08T07:58:05.176Z,968.44
2019-03-08T07:59:05.263Z,968.27
2019-03-08T08:00:05.514Z,968.48
2019-03-08T08:01:05.750Z,968.48
2019-03-08T08:02:05.235Z,968.59
2019-03-08T08:03:05.626Z,968.51
2019-03-08T08:04:05.469Z,968.60
2019-03-08T08:05:04.738Z,968.49
2019-03-08T08:06:05.775Z,968.41
2019-03-08T08:07:05.325Z,968.53
2019-03-08T08:08:04.963Z,968.56
2019-03-08T08:09:05.370Z,968.50
2019-03-08T08:10:04.829Z,968.59
2019-03-08T08:11:05.429Z,968.68
2019-03-08T08:12:04.990Z,968.71
2019-03-08T08:13:05.440Z,968.71
2019-03-08T08:14:05.247Z,968.78
2019-03-08T08:15:04.795Z,968.93
2019-03-08T08:16:05.059Z,968.90
2019-03-08T08:17:05.654Z,968.99
2019-03-08T08:18:05.542Z,968.96
2019-03-08T08:19:05.745Z,969.07
2019-03-08T08:20:05.486Z,969.08
2019-03-08T08:21:05.748Z,968.99
2019-03-08T08:22:05.290Z,969.02
2019-03-08T08:23:05.509Z,969.10
2019-03-08T08:24:05.130Z,969.22
2019-03-08T08:25:04.770Z,969.19
2019-03-08T08:26:05.100Z,969.27
2019-03-08T08:27:07.011Z,969.13
2019-03-08T08:28:05.420Z,969.25
2019-03-08T08:29:04.740Z,969.36
2019-03-08T08:30:05.185Z,969.30
2019-03-08T08:31:05.744Z,969.14
2019-03-08T08:32:04.978Z,969.42
2019-03-08T08:33:05.400Z,969.39
2019-03-08T08:34:05.561Z,969.37
2019-03-08T08:35:05.635Z,969.45
2019-03-08T08:36:05.407Z,969.51
2019-03-08T08:37:05.692Z,969.48
2019-03-08T08:38:04.925Z,969.57
2019-03-08T08:39:05.349Z,969.45
2019-03-08T08:40:04.981Z,969.60
2019-03-08T08:41:05.521Z,969.51
2019-03-08T08:42:05.652Z,969.57
2019-03-08T08:43:05.238Z,969.51
2019-03-08T08:44:05.772Z,969.48
2019-03-08T08:45:05.010Z,969.54
2019-03-08T08:46:05.041Z,969.57
2019-03-08T08:47:05.525Z,969.54
2019-03-08T08:48:05.002Z,969.56
2019-03-08T08:49:04.976Z,969.62
2019-03-08T08:50:05.154Z,969.48
2019-03-08T08:51:05.841Z,969.48
2019-03-08T08:52:05.594Z,969.62
2019-03-08T08:53:05.095Z,969.76
2019-03-08T08:54:04.646Z,969.61
2019-03-08T08:55:05.074Z,969.62
2019-03-08T08:56:05.611Z,969.61
2019-03-08T08:57:05.023Z,969.67
2019-03-08T08:58:05.721Z,969.75
2019-03-08T08:59:05.474Z,969.75
2019-03-08T09:00:04.898Z,969.87
2019-03-08T09:01:05.368Z,969.72
2019-03-08T09:02:05.384Z,970.03
2019-03-08T09:03:05.346Z,969.84
2019-03-08T09:04:05.404Z,969.87
2019-03-08T09:05:05.111Z,970.14
2019-03-08T09:06:05.440Z,970.03
2019-03-08T09:07:05.156Z,969.92
2019-03-08T09:08:05.572Z,970.09
2019-03-08T09:09:05.080Z,970.03
2019-03-08T09:10:05.570Z,969.97
2019-03-08T09:11:05.442Z,970.15
2019-03-08T09:12:04.998Z,970.20
2019-03-08T09:13:05.347Z,970.26
2019-03-08T09:14:05.648Z,970.09
2019-03-08T09:15:05.441Z,970.06
2019-03-08T09:16:05.295Z,970.20
2019-03-08T09:17:04.856Z,970.12
2019-03-08T09:18:05.516Z,970.12
2019-03-08T09:19:04.781Z,970.12
2019-03-08T09:20:05.036Z,970.18
2019-03-08T09:21:05.865Z,970.26
2019-03-08T09:22:05.173Z,970.18
2019-03-08T09:23:05.780Z,970.29
2019-03-08T09:24:05.176Z,970.45
2019-03-08T09:25:05.891Z,970.20
2019-03-08T09:26:05.298Z,970.42
2019-03-08T09:27:05.687Z,970.31
2019-03-08T09:28:05.357Z,970.47
2019-03-08T09:29:10.896Z,970.37
2019-03-08T09:30:05.745Z,970.37
2019-03-08T09:31:05.145Z,970.47
2019-03-08T09:32:04.808Z,970.53
2019-03-08T09:33:05.146Z,970.64
2019-03-08T09:34:05.371Z,970.53
2019-03-08T09:35:05.448Z,970.50
2019-03-08T09:36:05.090Z,970.56
2019-03-08T09:37:04.834Z,970.70
2019-03-08T09:38:05.245Z,970.56
2019-03-08T09:39:05.813Z,970.56
2019-03-08T09:40:05.036Z,970.53
2019-03-08T09:41:05.547Z,970.47
2019-03-08T09:42:04.918Z,970.53
2019-03-08T09:43:05.706Z,970.70
2019-03-08T09:44:05.200Z,970.52
2019-03-08T09:45:05.968Z,970.66
2019-03-08T09:46:05.273Z,970.66
2019-03-08T09:47:06.071Z,970.63
2019-03-08T09:48:05.418Z,970.46
2019-03-08T09:49:05.020Z,970.60
2019-03-08T09:50:04.745Z,970.49
2019-03-08T09:51:05.534Z,970.54
2019-03-08T09:52:05.102Z,970.65
2019-03-08T09:53:05.659Z,970.65
2019-03-08T09:54:05.082Z,970.71
2019-03-08T09:55:05.277Z,970.76
2019-03-08T09:56:04.823Z,970.64
2019-03-08T09:57:04.832Z,970.73
2019-03-08T09:58:05.487Z,970.72
2019-03-08T09:59:05.388Z,970.83
2019-03-08T10:00:04.744Z,970.83
2019-03-08T10:01:05.070Z,970.82
2019-03-08T10:02:04.759Z,970.73
2019-03-08T10:03:05.509Z,970.85
2019-03-08T10:04:05.050Z,970.81
2019-03-08T10:05:10.571Z,970.86
2019-03-08T10:06:05.226Z,970.86
2019-03-08T10:07:04.896Z,970.82
2019-03-08T10:08:05.246Z,970.82
2019-03-08T10:09:05.910Z,970.96
2019-03-08T10:10:05.099Z,970.73
2019-03-08T10:11:05.112Z,970.87
2019-03-08T10:12:05.633Z,970.89
2019-03-08T10:13:05.389Z,971.01
2019-03-08T10:14:05.165Z,971.00
2019-03-08T10:15:04.806Z,970.89
2019-03-08T10:16:05.395Z,970.94
2019-03-08T10:17:05.138Z,971.11
2019-03-08T10:18:05.019Z,970.94
2019-03-08T10:19:05.529Z,971.03
2019-03-08T10:20:05.336Z,971.06
2019-03-08T10:21:05.797Z,971.17
2019-03-08T10:22:05.245Z,971.14
2019-03-08T10:23:05.025Z,971.09
2019-03-08T10:24:04.757Z,971.12
2019-03-08T10:25:05.209Z,971.37
2019-03-08T10:26:05.013Z,971.20
2019-03-08T10:27:05.676Z,971.21
2019-03-08T10:28:05.413Z,971.12
2019-03-08T10:29:05.093Z,971.21
2019-03-08T10:30:04.894Z,971.16
2019-03-08T10:31:05.302Z,971.27
2019-03-08T10:32:05.654Z,971.39
2019-03-08T10:33:05.222Z,971.13
2019-03-08T10:34:04.981Z,971.28
2019-03-08T10:35:05.631Z,971.25
2019-03-08T10:36:05.183Z,971.42
2019-03-08T10:37:05.150Z,971.43
2019-03-08T10:38:05.611Z,971.40
2019-03-08T10:39:10.332Z,971.40
2019-03-08T10:40:06.135Z,971.32
2019-03-08T10:41:05.128Z,971.35
2019-03-08T10:42:04.920Z,971.49
2019-03-08T10:43:05.626Z,971.47
2019-03-08T10:44:12.884Z,971.55
2019-03-08T10:45:05.442Z,971.47
2019-03-08T10:46:05.167Z,971.47
2019-03-08T10:47:04.818Z,971.39
2019-03-08T10:48:05.423Z,971.56
2019-03-08T10:49:05.562Z,971.53
2019-03-08T10:50:04.885Z,971.64
2019-03-08T10:51:05.587Z,971.53
2019-03-08T10:52:05.560Z,971.61
2019-03-08T10:53:05.363Z,971.58
2019-03-08T10:54:05.527Z,971.63
2019-03-08T10:55:05.022Z,971.69
2019-03-08T10:56:04.911Z,971.68
2019-03-08T10:57:04.783Z,971.57
2019-03-08T10:58:05.170Z,971.62
2019-03-08T10:59:05.306Z,971.56
2019-03-08T11:00:05.020Z,971.68
2019-03-08T11:01:05.323Z,971.70
2019-03-08T11:02:05.493Z,971.44
2019-03-08T11:03:05.169Z,971.73
2019-03-08T11:04:06.460Z,971.61
2019-03-08T11:05:05.298Z,971.69
2019-03-08T11:06:05.656Z,971.61
2019-03-08T11:07:05.101Z,971.69
2019-03-08T11:08:05.681Z,971.75
2019-03-08T11:09:05.519Z,971.72
2019-03-08T11:10:05.469Z,971.81
2019-03-08T11:11:07.093Z,971.72
2019-03-08T11:12:05.029Z,971.66
2019-03-08T11:13:05.698Z,971.72
2019-03-08T11:14:05.111Z,971.85
2019-03-08T11:15:05.512Z,971.72
2019-03-08T11:16:05.070Z,971.66
2019-03-08T11:17:05.587Z,971.77
2019-03-08T11:18:05.087Z,971.77
2019-03-08T11:19:09.180Z,971.93
2019-03-08T11:20:05.359Z,971.98
2019-03-08T11:21:05.802Z,972.01
2019-03-08T11:22:05.850Z,971.89
2019-03-08T11:23:05.128Z,971.95
2019-03-08T11:24:04.791Z,972.18
2019-03-08T11:25:09.027Z,972.18
2019-03-08T11:26:04.949Z,972.18
2019-03-08T11:27:05.800Z,972.13
2019-03-08T11:28:05.076Z,972.19
2019-03-08T11:29:05.421Z,972.25
2019-03-08T11:30:04.955Z,972.37
2019-03-08T11:31:05.280Z,972.40
2019-03-08T11:32:05.008Z,972.32
2019-03-08T11:33:05.306Z,972.44
2019-03-08T11:34:04.921Z,972.64
2019-03-08T11:35:04.802Z,972.61
2019-03-08T11:36:05.454Z,972.43
2019-03-08T11:37:04.818Z,972.68
2019-03-08T11:38:04.826Z,972.60
2019-03-08T11:39:05.204Z,972.66
2019-03-08T11:40:05.756Z,972.58
2019-03-08T11:41:04.931Z,972.55
2019-03-08T11:42:05.352Z,972.56
2019-03-08T11:43:04.900Z,972.61
2019-03-08T11:44:05.310Z,972.59
2019-03-08T11:45:05.313Z,972.53
2019-03-08T11:46:04.986Z,972.65
2019-03-08T11:47:05.167Z,972.65
2019-03-08T11:48:05.556Z,972.57
2019-03-08T11:49:04.806Z,972.63
2019-03-08T11:50:05.761Z,972.60
2019-03-08T11:51:05.079Z,972.72
2019-03-08T11:52:05.587Z,972.58
2019-03-08T11:53:05.079Z,972.66
2019-03-08T11:54:05.126Z,972.69
2019-03-08T11:55:04.885Z,972.64
2019-03-08T11:56:05.113Z,972.86
2019-03-08T11:57:05.530Z,972.69
2019-03-08T11:58:04.768Z,972.69
2019-03-08T11:59:05.155Z,972.69
2019-03-08T12:00:05.441Z,972.81
2019-03-08T12:01:05.258Z,972.64
2019-03-08T12:02:06.101Z,972.75
2019-03-08T12:03:05.124Z,972.75
2019-03-08T12:04:05.714Z,972.72
2019-03-08T12:05:05.519Z,972.81
2019-03-08T12:06:05.454Z,972.72
2019-03-08T12:07:05.718Z,972.58
2019-03-08T12:08:05.104Z,972.72
2019-03-08T12:09:05.642Z,972.69
2019-03-08T12:10:05.023Z,972.69
2019-03-08T12:11:05.344Z,972.74
2019-03-08T12:12:05.859Z,972.71
2019-03-08T12:13:05.535Z,972.60
2019-03-08T12:14:05.119Z,972.69
2019-03-08T12:15:05.024Z,972.74
2019-03-08T12:16:04.849Z,972.71
2019-03-08T12:17:05.152Z,972.91
2019-03-08T12:18:04.835Z,972.91
2019-03-08T12:19:04.936Z,972.80
2019-03-08T12:20:05.573Z,972.91
2019-03-08T12:21:05.365Z,972.80
2019-03-08T12:22:04.777Z,972.80
2019-03-08T12:23:05.430Z,972.69
2019-03-08T12:24:05.052Z,972.88
2019-03-08T12:25:05.654Z,972.97
2019-03-08T12:26:05.192Z,972.77
2019-03-08T12:27:05.139Z,972.77
2019-03-08T12:28:05.404Z,972.71